sensor_id;sensor_type;location;lat;lon;timestamp;P1;durP1;ratioP1;P2;durP2;ratioP2
37451;SDS011;23314;51.114;6.900;2024-03-23T00:55:52;12.50;;;5.10;;
37451;SDS011;23314;51.114;6.900;2024-03-23T00:58:17;14.60;;;5.43;;
37451;SDS011;23314;51.114;6.900;2024-03-23T01:00:43;16.10;;;5.30;;
37451;SDS011;23314;51.114;6.900;2024-03-23T01:03:08;22.40;;;5.77;;
37451;SDS011;23314;51.114;6.900;2024-03-23T01:05:33;20.37;;;5.57;;
37451;SDS011;23314;51.114;6.900;2024-03-23T01:07:59;19.40;;;5.87;;
37451;SDS011;23314;51.114;6.900;2024-03-23T01:10:24;30.33;;;7.70;;
37451;SDS011;23314;51.114;6.900;2024-03-23T01:12:49;22.37;;;6.90;;
37451;SDS011;23314;51.114;6.900;2024-03-23T01:15:14;18.77;;;6.07;;
37451;SDS011;23314;51.114;6.900;2024-03-23T01:17:40;18.63;;;6.37;;
37451;SDS011;23314;51.114;6.900;2024-03-23T01:20:05;17.90;;;6.87;;
37451;SDS011;23314;51.114;6.900;2024-03-23T01:22:31;24.07;;;6.63;;
37451;SDS011;23314;51.114;6.900;2024-03-23T01:24:57;16.20;;;6.33;;
37451;SDS011;23314;51.114;6.900;2024-03-23T01:27:22;21.33;;;6.07;;
37451;SDS011;23314;51.114;6.900;2024-03-23T01:29:48;20.27;;;6.00;;
37451;SDS011;23314;51.114;6.900;2024-03-23T01:32:13;17.60;;;5.80;;
37451;SDS011;23314;51.114;6.900;2024-03-23T01:34:38;19.80;;;6.40;;
37451;SDS011;23314;51.114;6.900;2024-03-23T01:37:04;19.57;;;5.93;;
37451;SDS011;23314;51.114;6.900;2024-03-23T01:39:29;18.53;;;5.87;;
37451;SDS011;23314;51.114;6.900;2024-03-23T01:41:55;15.70;;;5.57;;
37451;SDS011;23314;51.114;6.900;2024-03-23T01:44:20;16.50;;;5.57;;
37451;SDS011;23314;51.114;6.900;2024-03-23T01:46:45;18.53;;;5.77;;
37451;SDS011;23314;51.114;6.900;2024-03-23T01:49:11;15.43;;;5.20;;
37451;SDS011;23314;51.114;6.900;2024-03-23T01:51:37;16.30;;;4.97;;
37451;SDS011;23314;51.114;6.900;2024-03-23T01:54:02;11.33;;;5.30;;
37451;SDS011;23314;51.114;6.900;2024-03-23T01:56:29;19.97;;;6.00;;
37451;SDS011;23314;51.114;6.900;2024-03-23T01:58:55;24.07;;;6.37;;
37451;SDS011;23314;51.114;6.900;2024-03-23T02:01:20;18.40;;;5.23;;
37451;SDS011;23314;51.114;6.900;2024-03-23T02:03:46;13.37;;;4.40;;
37451;SDS011;23314;51.114;6.900;2024-03-23T02:06:11;15.97;;;3.73;;
37451;SDS011;23314;51.114;6.900;2024-03-23T02:08:36;10.23;;;3.43;;
37451;SDS011;23314;51.114;6.900;2024-03-23T02:11:02;13.40;;;3.53;;
37451;SDS011;23314;51.114;6.900;2024-03-23T02:13:27;12.87;;;3.50;;
37451;SDS011;23314;51.114;6.900;2024-03-23T02:15:53;16.93;;;3.93;;
37451;SDS011;23314;51.114;6.900;2024-03-23T02:18:18;14.93;;;3.20;;
37451;SDS011;23314;51.114;6.900;2024-03-23T02:20:43;17.87;;;3.50;;
37451;SDS011;23314;51.114;6.900;2024-03-23T02:23:16;12.83;;;3.63;;
37451;SDS011;23314;51.114;6.900;2024-03-23T02:25:43;13.27;;;3.10;;
37451;SDS011;23314;51.114;6.900;2024-03-23T02:28:09;8.50;;;3.17;;
37451;SDS011;23314;51.114;6.900;2024-03-23T02:30:34;10.67;;;3.67;;
37451;SDS011;23314;51.114;6.900;2024-03-23T02:32:59;14.47;;;3.40;;
37451;SDS011;23314;51.114;6.900;2024-03-23T02:35:25;15.57;;;3.30;;
37451;SDS011;23314;51.114;6.900;2024-03-23T02:37:50;17.07;;;3.57;;
37451;SDS011;23314;51.114;6.900;2024-03-23T02:40:16;9.37;;;2.83;;
37451;SDS011;23314;51.114;6.900;2024-03-23T02:42:42;17.83;;;4.87;;
37451;SDS011;23314;51.114;6.900;2024-03-23T02:45:07;12.77;;;3.60;;
37451;SDS011;23314;51.114;6.900;2024-03-23T02:47:33;13.43;;;3.60;;
37451;SDS011;23314;51.114;6.900;2024-03-23T02:49:58;16.17;;;3.63;;
37451;SDS011;23314;51.114;6.900;2024-03-23T02:52:24;12.33;;;3.57;;
37451;SDS011;23314;51.114;6.900;2024-03-23T02:54:49;11.83;;;3.30;;
37451;SDS011;23314;51.114;6.900;2024-03-23T02:57:14;11.07;;;3.83;;
37451;SDS011;23314;51.114;6.900;2024-03-23T02:59:40;20.90;;;4.10;;
37451;SDS011;23314;51.114;6.900;2024-03-23T03:02:06;18.43;;;3.77;;
37451;SDS011;23314;51.114;6.900;2024-03-23T03:04:31;17.33;;;4.27;;
37451;SDS011;23314;51.114;6.900;2024-03-23T03:06:57;17.53;;;5.37;;
37451;SDS011;23314;51.114;6.900;2024-03-23T03:09:22;16.33;;;4.70;;
37451;SDS011;23314;51.114;6.900;2024-03-23T03:11:47;14.33;;;4.67;;
37451;SDS011;23314;51.114;6.900;2024-03-23T03:14:13;17.17;;;5.20;;
37451;SDS011;23314;51.114;6.900;2024-03-23T03:16:38;18.23;;;5.50;;
37451;SDS011;23314;51.114;6.900;2024-03-23T03:19:03;14.57;;;5.37;;
37451;SDS011;23314;51.114;6.900;2024-03-23T03:21:29;17.90;;;5.20;;
37451;SDS011;23314;51.114;6.900;2024-03-23T03:23:54;20.70;;;5.07;;
37451;SDS011;23314;51.114;6.900;2024-03-23T03:26:21;15.60;;;5.37;;
37451;SDS011;23314;51.114;6.900;2024-03-23T03:28:47;16.80;;;4.80;;
37451;SDS011;23314;51.114;6.900;2024-03-23T03:31:14;17.77;;;5.07;;
37451;SDS011;23314;51.114;6.900;2024-03-23T03:33:42;14.83;;;4.60;;
37451;SDS011;23314;51.114;6.900;2024-03-23T03:36:08;15.10;;;3.93;;
37451;SDS011;23314;51.114;6.900;2024-03-23T03:38:33;11.30;;;4.37;;
37451;SDS011;23314;51.114;6.900;2024-03-23T03:41:02;13.13;;;4.07;;
37451;SDS011;23314;51.114;6.900;2024-03-23T03:43:27;13.60;;;3.83;;
37451;SDS011;23314;51.114;6.900;2024-03-23T03:45:53;14.57;;;4.47;;
37451;SDS011;23314;51.114;6.900;2024-03-23T03:48:19;16.10;;;4.03;;
37451;SDS011;23314;51.114;6.900;2024-03-23T03:50:44;18.57;;;3.73;;
37451;SDS011;23314;51.114;6.900;2024-03-23T03:53:10;14.83;;;3.90;;
37451;SDS011;23314;51.114;6.900;2024-03-23T03:55:36;20.33;;;4.27;;
37451;SDS011;23314;51.114;6.900;2024-03-23T03:58:01;18.03;;;4.00;;
37451;SDS011;23314;51.114;6.900;2024-03-23T04:00:27;12.60;;;3.93;;
37451;SDS011;23314;51.114;6.900;2024-03-23T04:02:52;17.47;;;3.97;;
37451;SDS011;23314;51.114;6.900;2024-03-23T04:05:17;15.37;;;3.63;;
37451;SDS011;23314;51.114;6.900;2024-03-23T04:07:44;15.27;;;3.90;;
37451;SDS011;23314;51.114;6.900;2024-03-23T04:10:09;16.20;;;4.27;;
37451;SDS011;23314;51.114;6.900;2024-03-23T04:12:34;16.40;;;3.70;;
37451;SDS011;23314;51.114;6.900;2024-03-23T04:15:00;10.60;;;3.20;;
37451;SDS011;23314;51.114;6.900;2024-03-23T04:17:26;12.53;;;3.83;;
37451;SDS011;23314;51.114;6.900;2024-03-23T04:19:56;12.63;;;3.27;;
37451;SDS011;23314;51.114;6.900;2024-03-23T04:22:22;14.77;;;4.10;;
37451;SDS011;23314;51.114;6.900;2024-03-23T04:24:49;12.60;;;3.33;;
37451;SDS011;23314;51.114;6.900;2024-03-23T04:27:14;17.13;;;3.33;;
37451;SDS011;23314;51.114;6.900;2024-03-23T04:29:39;11.07;;;3.47;;
37451;SDS011;23314;51.114;6.900;2024-03-23T04:32:05;15.67;;;3.80;;
37451;SDS011;23314;51.114;6.900;2024-03-23T04:34:30;18.50;;;3.83;;
37451;SDS011;23314;51.114;6.900;2024-03-23T04:36:57;16.43;;;3.47;;
37451;SDS011;23314;51.114;6.900;2024-03-23T04:39:23;13.73;;;3.13;;
37451;SDS011;23314;51.114;6.900;2024-03-23T04:41:48;11.50;;;3.30;;
37451;SDS011;23314;51.114;6.900;2024-03-23T04:44:14;11.93;;;3.97;;
37451;SDS011;23314;51.114;6.900;2024-03-23T04:46:39;16.60;;;3.63;;
37451;SDS011;23314;51.114;6.900;2024-03-23T04:49:04;19.00;;;4.10;;
37451;SDS011;23314;51.114;6.900;2024-03-23T04:51:34;14.87;;;3.47;;
37451;SDS011;23314;51.114;6.900;2024-03-23T04:54:01;15.27;;;3.10;;
37451;SDS011;23314;51.114;6.900;2024-03-23T04:56:27;15.00;;;3.67;;
37451;SDS011;23314;51.114;6.900;2024-03-23T04:58:52;14.60;;;3.90;;
37451;SDS011;23314;51.114;6.900;2024-03-23T05:01:17;15.03;;;3.47;;
37451;SDS011;23314;51.114;6.900;2024-03-23T05:03:43;16.57;;;3.93;;
37451;SDS011;23314;51.114;6.900;2024-03-23T05:06:09;16.37;;;4.87;;
37451;SDS011;23314;51.114;6.900;2024-03-23T05:08:34;15.20;;;4.30;;
37451;SDS011;23314;51.114;6.900;2024-03-23T05:11:00;15.20;;;4.10;;
37451;SDS011;23314;51.114;6.900;2024-03-23T05:13:25;13.87;;;4.37;;
37451;SDS011;23314;51.114;6.900;2024-03-23T05:15:54;15.30;;;3.50;;
37451;SDS011;23314;51.114;6.900;2024-03-23T05:18:20;15.83;;;3.93;;
37451;SDS011;23314;51.114;6.900;2024-03-23T05:20:46;21.13;;;5.70;;
37451;SDS011;23314;51.114;6.900;2024-03-23T05:23:11;18.53;;;4.50;;
37451;SDS011;23314;51.114;6.900;2024-03-23T05:25:36;16.60;;;4.30;;
37451;SDS011;23314;51.114;6.900;2024-03-23T05:28:02;15.97;;;4.53;;
37451;SDS011;23314;51.114;6.900;2024-03-23T05:30:27;20.60;;;5.07;;
37451;SDS011;23314;51.114;6.900;2024-03-23T05:32:53;17.23;;;4.83;;
37451;SDS011;23314;51.114;6.900;2024-03-23T05:35:19;17.87;;;5.60;;
37451;SDS011;23314;51.114;6.900;2024-03-23T05:37:44;15.67;;;4.57;;
37451;SDS011;23314;51.114;6.900;2024-03-23T05:40:10;16.97;;;5.23;;
37451;SDS011;23314;51.114;6.900;2024-03-23T05:42:35;22.30;;;5.70;;
37451;SDS011;23314;51.114;6.900;2024-03-23T05:45:01;16.13;;;6.07;;
37451;SDS011;23314;51.114;6.900;2024-03-23T05:47:26;19.63;;;5.77;;
37451;SDS011;23314;51.114;6.900;2024-03-23T05:49:51;17.23;;;4.87;;
37451;SDS011;23314;51.114;6.900;2024-03-23T05:52:17;24.07;;;5.37;;
37451;SDS011;23314;51.114;6.900;2024-03-23T05:54:42;21.43;;;5.63;;
37451;SDS011;23314;51.114;6.900;2024-03-23T05:57:08;14.30;;;5.40;;
37451;SDS011;23314;51.114;6.900;2024-03-23T05:59:34;25.87;;;5.27;;
37451;SDS011;23314;51.114;6.900;2024-03-23T06:01:59;17.17;;;5.30;;
37451;SDS011;23314;51.114;6.900;2024-03-23T06:04:25;15.40;;;5.30;;
37451;SDS011;23314;51.114;6.900;2024-03-23T06:06:51;20.17;;;5.30;;
37451;SDS011;23314;51.114;6.900;2024-03-23T06:09:19;20.43;;;6.43;;
37451;SDS011;23314;51.114;6.900;2024-03-23T06:11:45;19.80;;;4.90;;
37451;SDS011;23314;51.114;6.900;2024-03-23T06:14:10;21.27;;;5.70;;
37451;SDS011;23314;51.114;6.900;2024-03-23T06:16:35;17.50;;;5.63;;
37451;SDS011;23314;51.114;6.900;2024-03-23T06:19:01;21.67;;;6.10;;
37451;SDS011;23314;51.114;6.900;2024-03-23T06:21:29;18.47;;;5.23;;
37451;SDS011;23314;51.114;6.900;2024-03-23T06:23:54;15.87;;;4.60;;
37451;SDS011;23314;51.114;6.900;2024-03-23T06:26:20;20.90;;;5.20;;
37451;SDS011;23314;51.114;6.900;2024-03-23T06:28:46;19.93;;;4.90;;
37451;SDS011;23314;51.114;6.900;2024-03-23T06:31:11;21.50;;;5.43;;
37451;SDS011;23314;51.114;6.900;2024-03-23T06:33:37;21.17;;;5.73;;
37451;SDS011;23314;51.114;6.900;2024-03-23T06:36:03;15.33;;;5.50;;
37451;SDS011;23314;51.114;6.900;2024-03-23T06:38:33;12.73;;;5.13;;
37451;SDS011;23314;51.114;6.900;2024-03-23T06:41:00;22.87;;;5.63;;
37451;SDS011;23314;51.114;6.900;2024-03-23T06:43:27;16.80;;;5.43;;
37451;SDS011;23314;51.114;6.900;2024-03-23T06:45:53;19.67;;;6.40;;
37451;SDS011;23314;51.114;6.900;2024-03-23T06:48:19;21.67;;;5.93;;
37451;SDS011;23314;51.114;6.900;2024-03-23T06:50:45;22.33;;;6.47;;
37451;SDS011;23314;51.114;6.900;2024-03-23T06:53:11;19.17;;;6.10;;
37451;SDS011;23314;51.114;6.900;2024-03-23T06:55:37;19.23;;;5.80;;
37451;SDS011;23314;51.114;6.900;2024-03-23T06:58:02;18.87;;;6.53;;
37451;SDS011;23314;51.114;6.900;2024-03-23T07:00:29;19.57;;;6.03;;
37451;SDS011;23314;51.114;6.900;2024-03-23T07:02:54;22.20;;;7.53;;
37451;SDS011;23314;51.114;6.900;2024-03-23T07:05:20;23.00;;;7.13;;
37451;SDS011;23314;51.114;6.900;2024-03-23T07:07:45;23.53;;;7.43;;
37451;SDS011;23314;51.114;6.900;2024-03-23T07:10:10;21.17;;;7.17;;
37451;SDS011;23314;51.114;6.900;2024-03-23T07:12:36;15.10;;;6.93;;
37451;SDS011;23314;51.114;6.900;2024-03-23T07:15:02;20.77;;;7.73;;
37451;SDS011;23314;51.114;6.900;2024-03-23T07:17:27;17.93;;;7.13;;
37451;SDS011;23314;51.114;6.900;2024-03-23T07:19:52;21.57;;;9.03;;
37451;SDS011;23314;51.114;6.900;2024-03-23T07:22:18;22.10;;;7.07;;
37451;SDS011;23314;51.114;6.900;2024-03-23T07:24:44;20.90;;;7.50;;
37451;SDS011;23314;51.114;6.900;2024-03-23T07:27:09;23.10;;;7.63;;
37451;SDS011;23314;51.114;6.900;2024-03-23T07:29:35;22.60;;;6.97;;
37451;SDS011;23314;51.114;6.900;2024-03-23T07:32:01;18.20;;;7.17;;
37451;SDS011;23314;51.114;6.900;2024-03-23T07:34:26;20.33;;;6.40;;
37451;SDS011;23314;51.114;6.900;2024-03-23T07:36:52;17.63;;;6.30;;
37451;SDS011;23314;51.114;6.900;2024-03-23T07:39:17;16.80;;;6.50;;
37451;SDS011;23314;51.114;6.900;2024-03-23T07:41:45;20.47;;;7.23;;
37451;SDS011;23314;51.114;6.900;2024-03-23T07:44:11;17.93;;;6.53;;
37451;SDS011;23314;51.114;6.900;2024-03-23T07:46:36;18.90;;;6.87;;
37451;SDS011;23314;51.114;6.900;2024-03-23T07:49:02;18.00;;;6.80;;
37451;SDS011;23314;51.114;6.900;2024-03-23T07:51:29;23.73;;;8.00;;
37451;SDS011;23314;51.114;6.900;2024-03-23T07:53:54;19.90;;;7.77;;
37451;SDS011;23314;51.114;6.900;2024-03-23T07:56:20;22.97;;;7.90;;
37451;SDS011;23314;51.114;6.900;2024-03-23T07:58:46;27.97;;;8.60;;
37451;SDS011;23314;51.114;6.900;2024-03-23T08:01:13;18.73;;;8.10;;
37451;SDS011;23314;51.114;6.900;2024-03-23T08:03:41;18.00;;;7.83;;
37451;SDS011;23314;51.114;6.900;2024-03-23T08:06:11;15.43;;;8.20;;
37451;SDS011;23314;51.114;6.900;2024-03-23T08:08:45;18.80;;;7.23;;
37451;SDS011;23314;51.114;6.900;2024-03-23T08:11:12;17.93;;;7.60;;
37451;SDS011;23314;51.114;6.900;2024-03-23T08:13:40;14.60;;;6.63;;
37451;SDS011;23314;51.114;6.900;2024-03-23T08:16:07;16.33;;;5.53;;
37451;SDS011;23314;51.114;6.900;2024-03-23T08:18:35;9.67;;;5.20;;
37451;SDS011;23314;51.114;6.900;2024-03-23T08:23:30;12.60;;;4.80;;
37451;SDS011;23314;51.114;6.900;2024-03-23T08:26:04;15.37;;;4.77;;
37451;SDS011;23314;51.114;6.900;2024-03-23T08:28:29;12.77;;;4.60;;
37451;SDS011;23314;51.114;6.900;2024-03-23T08:30:55;12.27;;;4.47;;
37451;SDS011;23314;51.114;6.900;2024-03-23T08:33:21;14.10;;;4.83;;
37451;SDS011;23314;51.114;6.900;2024-03-23T08:35:56;8.23;;;3.77;;
37451;SDS011;23314;51.114;6.900;2024-03-23T08:38:23;9.53;;;4.03;;
37451;SDS011;23314;51.114;6.900;2024-03-23T08:40:56;10.17;;;4.17;;
37451;SDS011;23314;51.114;6.900;2024-03-23T08:43:22;9.43;;;3.70;;
37451;SDS011;23314;51.114;6.900;2024-03-23T08:45:47;11.93;;;3.53;;
37451;SDS011;23314;51.114;6.900;2024-03-23T08:48:12;14.07;;;3.63;;
37451;SDS011;23314;51.114;6.900;2024-03-23T08:50:38;10.90;;;3.73;;
37451;SDS011;23314;51.114;6.900;2024-03-23T08:53:03;16.73;;;3.77;;
37451;SDS011;23314;51.114;6.900;2024-03-23T08:55:29;17.87;;;4.17;;
37451;SDS011;23314;51.114;6.900;2024-03-23T08:57:54;13.27;;;4.07;;
37451;SDS011;23314;51.114;6.900;2024-03-23T09:00:21;16.60;;;3.87;;
37451;SDS011;23314;51.114;6.900;2024-03-23T09:02:50;13.33;;;4.13;;
37451;SDS011;23314;51.114;6.900;2024-03-23T09:05:15;11.93;;;3.70;;
37451;SDS011;23314;51.114;6.900;2024-03-23T09:07:40;13.90;;;3.50;;
37451;SDS011;23314;51.114;6.900;2024-03-23T09:10:06;10.03;;;3.63;;
37451;SDS011;23314;51.114;6.900;2024-03-23T09:12:32;15.20;;;4.10;;
37451;SDS011;23314;51.114;6.900;2024-03-23T09:14:58;11.40;;;3.80;;
37451;SDS011;23314;51.114;6.900;2024-03-23T09:17:24;10.23;;;3.50;;
37451;SDS011;23314;51.114;6.900;2024-03-23T09:19:49;9.13;;;4.30;;
37451;SDS011;23314;51.114;6.900;2024-03-23T09:22:15;11.80;;;3.87;;
37451;SDS011;23314;51.114;6.900;2024-03-23T09:24:40;13.67;;;4.10;;
37451;SDS011;23314;51.114;6.900;2024-03-23T09:27:05;12.33;;;4.17;;
37451;SDS011;23314;51.114;6.900;2024-03-23T09:29:31;11.00;;;3.33;;
37451;SDS011;23314;51.114;6.900;2024-03-23T09:31:56;10.27;;;3.47;;
37451;SDS011;23314;51.114;6.900;2024-03-23T09:34:21;7.33;;;3.23;;
37451;SDS011;23314;51.114;6.900;2024-03-23T09:36:47;5.50;;;3.40;;
37451;SDS011;23314;51.114;6.900;2024-03-23T09:39:17;8.33;;;3.50;;
37451;SDS011;23314;51.114;6.900;2024-03-23T09:41:44;10.10;;;4.10;;
37451;SDS011;23314;51.114;6.900;2024-03-23T09:44:09;10.23;;;3.50;;
37451;SDS011;23314;51.114;6.900;2024-03-23T09:46:35;11.20;;;3.70;;
37451;SDS011;23314;51.114;6.900;2024-03-23T09:49:01;11.50;;;3.67;;
37451;SDS011;23314;51.114;6.900;2024-03-23T09:51:29;10.23;;;3.70;;
37451;SDS011;23314;51.114;6.900;2024-03-23T09:53:55;12.10;;;3.83;;
37451;SDS011;23314;51.114;6.900;2024-03-23T09:56:21;11.30;;;3.30;;
37451;SDS011;23314;51.114;6.900;2024-03-23T09:58:46;7.10;;;2.43;;
37451;SDS011;23314;51.114;6.900;2024-03-23T10:01:12;5.83;;;2.50;;
37451;SDS011;23314;51.114;6.900;2024-03-23T10:03:46;8.37;;;2.73;;
37451;SDS011;23314;51.114;6.900;2024-03-23T10:06:12;7.40;;;2.30;;
37451;SDS011;23314;51.114;6.900;2024-03-23T10:08:37;8.87;;;2.67;;
37451;SDS011;23314;51.114;6.900;2024-03-23T10:11:13;13.20;;;3.53;;
37451;SDS011;23314;51.114;6.900;2024-03-23T10:13:41;9.43;;;2.60;;
37451;SDS011;23314;51.114;6.900;2024-03-23T10:16:07;12.50;;;3.30;;
37451;SDS011;23314;51.114;6.900;2024-03-23T10:18:36;6.63;;;2.27;;
37451;SDS011;23314;51.114;6.900;2024-03-23T10:23:30;7.97;;;2.40;;
37451;SDS011;23314;51.114;6.900;2024-03-23T10:26:12;5.50;;;1.90;;
37451;SDS011;23314;51.114;6.900;2024-03-23T10:28:51;9.53;;;2.30;;
37451;SDS011;23314;51.114;6.900;2024-03-23T10:31:32;9.80;;;2.50;;
37451;SDS011;23314;51.114;6.900;2024-03-23T10:33:57;7.23;;;2.13;;
37451;SDS011;23314;51.114;6.900;2024-03-23T10:36:23;9.07;;;2.30;;
37451;SDS011;23314;51.114;6.900;2024-03-23T10:38:49;4.63;;;1.67;;
37451;SDS011;23314;51.114;6.900;2024-03-23T10:41:16;8.07;;;2.53;;
37451;SDS011;23314;51.114;6.900;2024-03-23T10:43:41;7.73;;;2.23;;
37451;SDS011;23314;51.114;6.900;2024-03-23T10:46:09;7.10;;;1.90;;
37451;SDS011;23314;51.114;6.900;2024-03-23T10:48:35;8.53;;;2.50;;
37451;SDS011;23314;51.114;6.900;2024-03-23T10:51:00;7.67;;;2.20;;
37451;SDS011;23314;51.114;6.900;2024-03-23T10:53:26;6.17;;;1.90;;
37451;SDS011;23314;51.114;6.900;2024-03-23T10:55:53;4.17;;;1.47;;
37451;SDS011;23314;51.114;6.900;2024-03-23T10:58:21;4.70;;;1.43;;
37451;SDS011;23314;51.114;6.900;2024-03-23T11:00:51;5.43;;;2.00;;
37451;SDS011;23314;51.114;6.900;2024-03-23T11:03:34;4.80;;;1.57;;
37451;SDS011;23314;51.114;6.900;2024-03-23T11:06:02;5.93;;;1.40;;
37451;SDS011;23314;51.114;6.900;2024-03-23T11:08:32;3.77;;;1.33;;
37451;SDS011;23314;51.114;6.900;2024-03-23T11:13:50;2.83;;;1.10;;
37451;SDS011;23314;51.114;6.900;2024-03-23T11:16:17;0.73;;;0.73;;
37451;SDS011;23314;51.114;6.900;2024-03-23T11:18:53;0.70;;;0.70;;
37451;SDS011;23314;51.114;6.900;2024-03-23T11:24:19;2.47;;;0.87;;
37451;SDS011;23314;51.114;6.900;2024-03-23T11:26:46;1.50;;;0.87;;
37451;SDS011;23314;51.114;6.900;2024-03-23T11:29:12;2.73;;;0.80;;
37451;SDS011;23314;51.114;6.900;2024-03-23T11:31:44;2.67;;;1.00;;
37451;SDS011;23314;51.114;6.900;2024-03-23T11:34:11;1.23;;;0.87;;
37451;SDS011;23314;51.114;6.900;2024-03-23T11:36:36;3.00;;;1.07;;
37451;SDS011;23314;51.114;6.900;2024-03-23T11:39:11;1.70;;;0.97;;
37451;SDS011;23314;51.114;6.900;2024-03-23T11:41:50;2.10;;;0.90;;
37451;SDS011;23314;51.114;6.900;2024-03-23T11:44:23;3.30;;;1.10;;
37451;SDS011;23314;51.114;6.900;2024-03-23T11:46:50;1.60;;;1.00;;
37451;SDS011;23314;51.114;6.900;2024-03-23T11:51:50;2.37;;;1.40;;
37451;SDS011;23314;51.114;6.900;2024-03-23T11:54:16;6.63;;;1.30;;
37451;SDS011;23314;51.114;6.900;2024-03-23T11:56:58;4.30;;;1.50;;
37451;SDS011;23314;51.114;6.900;2024-03-23T12:02:06;3.17;;;1.37;;
37451;SDS011;23314;51.114;6.900;2024-03-23T12:04:32;4.97;;;1.73;;
37451;SDS011;23314;51.114;6.900;2024-03-23T12:07:12;4.27;;;1.47;;
37451;SDS011;23314;51.114;6.900;2024-03-23T12:09:39;6.90;;;1.90;;
37451;SDS011;23314;51.114;6.900;2024-03-23T12:14:34;1.40;;;0.60;;
37451;SDS011;23314;51.114;6.900;2024-03-23T12:17:10;1.33;;;1.00;;
37451;SDS011;23314;51.114;6.900;2024-03-23T12:19:40;4.27;;;0.80;;
37451;SDS011;23314;51.114;6.900;2024-03-23T12:22:07;0.93;;;0.63;;
37451;SDS011;23314;51.114;6.900;2024-03-23T12:24:33;2.40;;;0.73;;
37451;SDS011;23314;51.114;6.900;2024-03-23T12:27:00;1.27;;;0.70;;
37451;SDS011;23314;51.114;6.900;2024-03-23T12:29:30;1.30;;;1.00;;
37451;SDS011;23314;51.114;6.900;2024-03-23T12:31:59;1.57;;;1.20;;
37451;SDS011;23314;51.114;6.900;2024-03-23T12:34:28;1.53;;;1.27;;
37451;SDS011;23314;51.114;6.900;2024-03-23T12:36:55;2.10;;;1.40;;
37451;SDS011;23314;51.114;6.900;2024-03-23T12:39:21;2.77;;;1.10;;
37451;SDS011;23314;51.114;6.900;2024-03-23T12:41:46;3.70;;;1.00;;
37451;SDS011;23314;51.114;6.900;2024-03-23T12:44:12;3.57;;;1.40;;
37451;SDS011;23314;51.114;6.900;2024-03-23T12:46:38;0.87;;;0.70;;
37451;SDS011;23314;51.114;6.900;2024-03-23T12:49:04;2.17;;;0.93;;
37451;SDS011;23314;51.114;6.900;2024-03-23T12:51:30;2.30;;;0.77;;
37451;SDS011;23314;51.114;6.900;2024-03-23T12:53:56;1.00;;;0.90;;
37451;SDS011;23314;51.114;6.900;2024-03-23T12:56:21;3.40;;;1.07;;
37451;SDS011;23314;51.114;6.900;2024-03-23T12:58:47;1.47;;;0.73;;
37451;SDS011;23314;51.114;6.900;2024-03-23T13:01:19;1.27;;;0.93;;
37451;SDS011;23314;51.114;6.900;2024-03-23T13:03:47;2.13;;;1.20;;
37451;SDS011;23314;51.114;6.900;2024-03-23T13:06:14;2.33;;;1.47;;
37451;SDS011;23314;51.114;6.900;2024-03-23T13:08:40;2.33;;;1.20;;
37451;SDS011;23314;51.114;6.900;2024-03-23T13:11:06;2.40;;;1.10;;
37451;SDS011;23314;51.114;6.900;2024-03-23T13:13:34;5.17;;;1.30;;
37451;SDS011;23314;51.114;6.900;2024-03-23T13:15:59;2.13;;;1.13;;
37451;SDS011;23314;51.114;6.900;2024-03-23T13:18:25;3.57;;;1.40;;
37451;SDS011;23314;51.114;6.900;2024-03-23T13:20:50;5.23;;;1.20;;
37451;SDS011;23314;51.114;6.900;2024-03-23T13:23:17;2.50;;;1.20;;
37451;SDS011;23314;51.114;6.900;2024-03-23T13:25:49;3.83;;;1.83;;
37451;SDS011;23314;51.114;6.900;2024-03-23T13:28:14;2.77;;;1.30;;
37451;SDS011;23314;51.114;6.900;2024-03-23T13:30:49;1.97;;;1.03;;
37451;SDS011;23314;51.114;6.900;2024-03-23T13:33:18;1.90;;;1.00;;
37451;SDS011;23314;51.114;6.900;2024-03-23T13:35:53;2.23;;;1.30;;
37451;SDS011;23314;51.114;6.900;2024-03-23T13:38:20;2.67;;;1.00;;
37451;SDS011;23314;51.114;6.900;2024-03-23T13:40:56;2.63;;;1.00;;
37451;SDS011;23314;51.114;6.900;2024-03-23T13:43:23;1.50;;;1.00;;
37451;SDS011;23314;51.114;6.900;2024-03-23T13:45:53;3.90;;;0.87;;
37451;SDS011;23314;51.114;6.900;2024-03-23T13:48:19;2.63;;;1.20;;
37451;SDS011;23314;51.114;6.900;2024-03-23T13:50:46;3.03;;;1.20;;
37451;SDS011;23314;51.114;6.900;2024-03-23T13:53:15;4.40;;;1.10;;
37451;SDS011;23314;51.114;6.900;2024-03-23T13:55:46;3.33;;;1.30;;
37451;SDS011;23314;51.114;6.900;2024-03-23T13:58:13;8.33;;;2.07;;
37451;SDS011;23314;51.114;6.900;2024-03-23T14:00:39;4.60;;;1.10;;
37451;SDS011;23314;51.114;6.900;2024-03-23T14:03:05;2.27;;;1.30;;
37451;SDS011;23314;51.114;6.900;2024-03-23T14:05:30;1.40;;;1.30;;
37451;SDS011;23314;51.114;6.900;2024-03-23T14:07:56;2.97;;;1.40;;
37451;SDS011;23314;51.114;6.900;2024-03-23T14:10:21;3.20;;;1.43;;
37451;SDS011;23314;51.114;6.900;2024-03-23T14:12:47;2.03;;;1.10;;
37451;SDS011;23314;51.114;6.900;2024-03-23T14:15:12;1.87;;;1.27;;
37451;SDS011;23314;51.114;6.900;2024-03-23T14:17:37;2.00;;;1.33;;
37451;SDS011;23314;51.114;6.900;2024-03-23T14:20:04;3.40;;;1.10;;
37451;SDS011;23314;51.114;6.900;2024-03-23T14:22:30;1.07;;;0.90;;
37451;SDS011;23314;51.114;6.900;2024-03-23T14:24:56;3.80;;;1.10;;
37451;SDS011;23314;51.114;6.900;2024-03-23T14:27:21;2.03;;;1.33;;
37451;SDS011;23314;51.114;6.900;2024-03-23T14:29:47;2.13;;;1.30;;
37451;SDS011;23314;51.114;6.900;2024-03-23T14:32:13;2.70;;;1.20;;
37451;SDS011;23314;51.114;6.900;2024-03-23T14:34:38;4.30;;;1.50;;
37451;SDS011;23314;51.114;6.900;2024-03-23T14:37:04;3.03;;;1.40;;
37451;SDS011;23314;51.114;6.900;2024-03-23T14:39:30;2.80;;;1.17;;
37451;SDS011;23314;51.114;6.900;2024-03-23T14:41:56;5.87;;;1.37;;
37451;SDS011;23314;51.114;6.900;2024-03-23T14:44:22;2.40;;;1.20;;
37451;SDS011;23314;51.114;6.900;2024-03-23T14:46:47;2.03;;;1.43;;
37451;SDS011;23314;51.114;6.900;2024-03-23T14:49:16;2.07;;;1.40;;
37451;SDS011;23314;51.114;6.900;2024-03-23T14:51:44;1.77;;;1.07;;
37451;SDS011;23314;51.114;6.900;2024-03-23T14:54:10;2.63;;;0.90;;
37451;SDS011;23314;51.114;6.900;2024-03-23T14:56:36;1.50;;;0.90;;
37451;SDS011;23314;51.114;6.900;2024-03-23T14:59:02;0.93;;;0.80;;
37451;SDS011;23314;51.114;6.900;2024-03-23T15:01:28;1.87;;;0.83;;
37451;SDS011;23314;51.114;6.900;2024-03-23T15:03:53;2.27;;;1.03;;
37451;SDS011;23314;51.114;6.900;2024-03-23T15:06:18;1.83;;;1.00;;
37451;SDS011;23314;51.114;6.900;2024-03-23T15:08:44;1.63;;;0.77;;
37451;SDS011;23314;51.114;6.900;2024-03-23T15:11:10;0.70;;;0.70;;
37451;SDS011;23314;51.114;6.900;2024-03-23T15:13:37;1.90;;;0.80;;
37451;SDS011;23314;51.114;6.900;2024-03-23T15:16:03;1.00;;;0.60;;
37451;SDS011;23314;51.114;6.900;2024-03-23T15:18:30;0.67;;;0.67;;
37451;SDS011;23314;51.114;6.900;2024-03-23T15:21:01;1.53;;;0.90;;
37451;SDS011;23314;51.114;6.900;2024-03-23T15:23:28;1.20;;;0.77;;
37451;SDS011;23314;51.114;6.900;2024-03-23T15:25:57;0.70;;;0.70;;
37451;SDS011;23314;51.114;6.900;2024-03-23T15:28:24;1.20;;;1.10;;
37451;SDS011;23314;51.114;6.900;2024-03-23T15:30:53;0.97;;;0.83;;
37451;SDS011;23314;51.114;6.900;2024-03-23T15:33:18;2.07;;;1.40;;
37451;SDS011;23314;51.114;6.900;2024-03-23T15:35:44;3.00;;;1.30;;
37451;SDS011;23314;51.114;6.900;2024-03-23T15:38:09;1.23;;;1.20;;
37451;SDS011;23314;51.114;6.900;2024-03-23T15:40:35;3.00;;;1.73;;
37451;SDS011;23314;51.114;6.900;2024-03-23T15:43:00;2.00;;;1.40;;
37451;SDS011;23314;51.114;6.900;2024-03-23T15:45:26;3.10;;;1.30;;
37451;SDS011;23314;51.114;6.900;2024-03-23T15:47:51;1.20;;;1.10;;
37451;SDS011;23314;51.114;6.900;2024-03-23T15:50:17;1.77;;;1.37;;